Time;durP1;ratioP1;P1;durP2;ratioP2;P2;SDS_P1;SDS_P2;PMS_P1;PMS_P2;Temp;Humidity;BMP_temperature;BMP_pressure;BME280_temperature;BME280_humidity;BME280_pressure;Samples;Min_cycle;Max_cycle;Signal;HPM_P1;HPM_P2
2022/10/07 00:00:46;;;;;;;;;;;10.00;99.90;;;;;;5063146;28;20019;-66
2022/10/07 00:03:13;;;;;;;;;;;10.00;99.90;;;;;;5063731;28;19934;-66
2022/10/07 00:05:40;;;;;;;;;;;9.90;99.90;;;;;;5057120;28;19924;-66
2022/10/07 00:08:07;;;;;;;;;;;9.90;99.90;;;;;;5065282;28;19955;-66
2022/10/07 00:10:36;;;;;;;;;;;9.90;99.90;;;;;;5057694;28;20043;-66
2022/10/07 00:13:04;;;;;;;;;;;9.90;99.90;;;;;;5051447;28;19929;-66
2022/10/07 00:15:31;;;;;;;;;;;9.90;99.90;;;;;;5052990;28;19982;-66
2022/10/07 00:17:58;;;;;;;;;;;9.90;99.90;;;;;;5068397;28;19924;-66
2022/10/07 00:20:24;;;;;;;;;;;9.90;99.90;;;;;;5063687;28;20031;-66
2022/10/07 00:22:53;;;;;;;;;;;9.90;99.90;;;;;;5058349;28;19925;-66
2022/10/07 00:25:19;;;;;;;;;;;9.80;99.90;;;;;;5060084;28;19928;-66
2022/10/07 00:27:49;;;;;;;;;;;9.80;99.90;;;;;;5053084;28;19925;-67
2022/10/07 00:30:17;;;;;;;;;;;9.80;99.90;;;;;;5050058;28;19924;-66
2022/10/07 00:32:43;;;;;;;;;;;9.80;99.90;;;;;;5055851;28;19950;-64
2022/10/07 00:35:10;;;;;;;;;;;9.80;99.90;;;;;;5052799;28;19932;-66
2022/10/07 00:37:41;;;;;;;;;;;9.80;99.90;;;;;;5056861;28;19933;-66
2022/10/07 00:40:09;;;;;;;;;;;9.80;99.90;;;;;;5062642;28;19947;-66
2022/10/07 00:42:36;;;;;;;;;;;9.70;99.90;;;;;;5064659;28;19924;-66
2022/10/07 00:45:03;;;;;;;;;;;9.70;99.90;;;;;;5051765;28;19928;-66
2022/10/07 00:47:31;;;;;;;;;;;9.70;99.90;;;;;;5058460;28;20031;-67
2022/10/07 00:50:01;;;;;;;;;;;9.70;99.90;;;;;;5062259;28;19924;-67
2022/10/07 00:52:30;;;;;;;;;;;9.70;99.90;;;;;;5051785;28;20031;-66
2022/10/07 00:54:57;;;;;;;;;;;9.60;99.90;;;;;;5050897;28;20138;-66
2022/10/07 00:57:25;;;;;;;;;;;9.60;99.90;;;;;;5060697;28;20395;-66
2022/10/07 00:59:54;;;;;;;;;;;9.60;99.90;;;;;;5051713;28;19931;-67
2022/10/07 01:02:20;;;;;;;;;;;9.60;99.90;;;;;;5061983;28;19971;-66
2022/10/07 01:04:49;;;;;;;;;;;9.60;99.90;;;;;;5057911;28;19944;-66
2022/10/07 01:07:17;;;;;;;;;;;9.60;99.90;;;;;;5067482;28;19933;-66
2022/10/07 01:09:45;;;;;;;;;;;9.60;99.90;;;;;;5066420;28;20394;-66
2022/10/07 01:12:15;;;;;;;;;;;9.60;99.90;;;;;;5051229;28;19957;-67
2022/10/07 01:14:48;;;;;;;;;;;9.60;99.90;;;;;;5051461;28;19925;-66
2022/10/07 01:17:20;;;;;;;;;;;9.60;99.90;;;;;;5050230;28;20268;-66
2022/10/07 01:20:02;;;;;;;;;;;9.60;99.90;;;;;;5053832;28;19931;-66
2022/10/07 01:22:37;;;;;;;;;;;9.50;99.90;;;;;;5053799;28;20020;-66
2022/10/07 01:25:12;;;;;;;;;;;9.60;99.90;;;;;;5056927;28;19929;-66
2022/10/07 01:27:41;;;;;;;;;;;9.60;99.90;;;;;;5054093;28;20395;-66
2022/10/07 01:30:08;;;;;;;;;;;9.50;99.90;;;;;;5056479;28;19999;-66
2022/10/07 01:32:36;;;;;;;;;;;9.50;99.90;;;;;;5053020;28;20008;-66
2022/10/07 01:35:04;;;;;;;;;;;9.50;99.90;;;;;;5052681;28;19936;-66
2022/10/07 01:37:34;;;;;;;;;;;9.50;99.90;;;;;;5070058;28;19931;-66
2022/10/07 01:40:03;;;;;;;;;;;9.50;99.90;;;;;;5057893;28;19933;-66
2022/10/07 01:42:29;;;;;;;;;;;9.50;99.90;;;;;;5050857;28;19947;-66
2022/10/07 01:44:58;;;;;;;;;;;9.40;99.90;;;;;;5054142;28;19925;-66
2022/10/07 01:47:25;;;;;;;;;;;9.40;99.90;;;;;;5053359;28;19931;-66
2022/10/07 01:49:52;;;;;;;;;;;9.40;99.90;;;;;;5049646;28;19924;-66
2022/10/07 01:52:25;;;;;;;;;;;9.40;99.90;;;;;;5055485;28;19925;-66
2022/10/07 01:55:01;;;;;;;;;;;9.50;99.90;;;;;;5050221;28;20298;-66
2022/10/07 01:57:34;;;;;;;;;;;9.40;99.90;;;;;;5057760;28;20009;-65
2022/10/07 02:00:06;;;;;;;;;;;9.50;99.90;;;;;;5050441;28;19925;-66
2022/10/07 02:02:41;;;;;;;;;;;9.40;99.90;;;;;;5050771;28;19924;-66
2022/10/07 02:05:12;;;;;;;;;;;9.40;99.90;;;;;;5057075;28;20428;-67
2022/10/07 02:07:43;;;;;;;;;;;9.40;99.90;;;;;;5046872;28;19932;-66
2022/10/07 02:10:15;;;;;;;;;;;9.40;99.90;;;;;;5039165;28;19925;-67
2022/10/07 02:12:43;;;;;;;;;;;9.40;99.90;;;;;;5034839;28;20028;-67
2022/10/07 02:15:14;;;;;;;;;;;9.30;99.90;;;;;;5045457;28;19924;-67
2022/10/07 02:17:43;;;;;;;;;;;9.30;99.90;;;;;;5034319;28;20287;-64
2022/10/07 02:20:11;;;;;;;;;;;9.40;99.90;;;;;;5038764;28;19933;-66
2022/10/07 02:22:38;;;;;;;;;;;9.30;99.90;;;;;;5043462;28;19980;-66
2022/10/07 02:25:05;;;;;;;;;;;9.30;99.90;;;;;;5045220;28;20027;-64
2022/10/07 02:27:35;;;;;;;;;;;9.30;99.90;;;;;;5044980;28;19925;-65
2022/10/07 02:30:06;;;;;;;;;;;9.30;99.90;;;;;;5048796;28;20023;-65
2022/10/07 02:32:35;;;;;;;;;;;9.30;99.90;;;;;;5037488;28;19932;-64
2022/10/07 02:35:05;;;;;;;;;;;9.30;99.90;;;;;;5036412;28;19935;-65
2022/10/07 02:37:34;;;;;;;;;;;9.30;99.90;;;;;;5038017;28;20297;-65
2022/10/07 02:40:02;;;;;;;;;;;9.30;99.90;;;;;;5044289;28;19932;-65
2022/10/07 02:42:32;;;;;;;;;;;9.30;99.90;;;;;;5035804;28;20000;-65
2022/10/07 02:45:01;;;;;;;;;;;9.30;99.90;;;;;;5032715;28;19957;-65
2022/10/07 02:47:31;;;;;;;;;;;9.30;99.90;;;;;;5033451;28;19925;-64
2022/10/07 02:50:00;;;;;;;;;;;9.40;99.90;;;;;;5034047;28;20383;-65
2022/10/07 02:52:30;;;;;;;;;;;9.30;99.90;;;;;;5046411;28;19925;-65
2022/10/07 02:54:58;;;;;;;;;;;9.40;99.90;;;;;;5038960;28;19976;-65
2022/10/07 02:57:26;;;;;;;;;;;9.40;99.90;;;;;;5032910;28;19925;-65
2022/10/07 02:59:53;;;;;;;;;;;9.40;99.90;;;;;;5037676;28;19925;-65
2022/10/07 03:02:21;;;;;;;;;;;9.40;99.90;;;;;;5037425;28;19931;-65
2022/10/07 03:04:48;;;;;;;;;;;9.40;99.90;;;;;;5033661;28;19925;-65
2022/10/07 03:07:16;;;;;;;;;;;9.40;99.90;;;;;;5045760;28;19932;-64
2022/10/07 03:09:42;;;;;;;;;;;9.40;99.90;;;;;;5057668;28;19930;-65
2022/10/07 03:12:09;;;;;;;;;;;9.40;99.90;;;;;;5077425;28;19930;-65
2022/10/07 03:14:36;;;;;;;;;;;9.30;99.90;;;;;;5058353;28;19972;-65
2022/10/07 03:17:02;;;;;;;;;;;9.30;99.90;;;;;;5055573;28;20174;-65
2022/10/07 03:19:29;;;;;;;;;;;9.30;99.90;;;;;;5055783;28;20263;-65
2022/10/07 03:21:56;;;;;;;;;;;9.30;99.90;;;;;;5053288;28;19938;-65
2022/10/07 03:24:24;;;;;;;;;;;9.30;99.90;;;;;;5068570;28;19994;-65
2022/10/07 03:26:50;;;;;;;;;;;9.30;99.90;;;;;;5060072;28;19931;-65
2022/10/07 03:29:18;;;;;;;;;;;9.20;99.90;;;;;;5055332;28;20591;-65
2022/10/07 03:31:45;;;;;;;;;;;9.20;99.90;;;;;;5071987;28;19955;-64
2022/10/07 03:34:11;;;;;;;;;;;9.20;99.90;;;;;;5056103;28;19940;-66
2022/10/07 03:36:38;;;;;;;;;;;9.10;99.90;;;;;;5063811;28;19925;-67
2022/10/07 03:39:05;;;;;;;;;;;9.10;99.90;;;;;;5062330;28;20007;-66
2022/10/07 03:41:33;;;;;;;;;;;9.10;99.90;;;;;;5066390;28;20294;-66
2022/10/07 03:43:59;;;;;;;;;;;9.10;99.90;;;;;;5057952;28;20012;-66
2022/10/07 03:46:26;;;;;;;;;;;9.10;99.90;;;;;;5051617;28;19925;-66
2022/10/07 03:48:53;;;;;;;;;;;9.00;99.90;;;;;;5067852;28;19925;-66
2022/10/07 03:51:19;;;;;;;;;;;9.00;99.90;;;;;;5056618;28;20019;-66
2022/10/07 03:53:46;;;;;;;;;;;9.00;99.90;;;;;;5058038;28;19930;-66
2022/10/07 03:56:13;;;;;;;;;;;9.10;99.90;;;;;;5053701;28;20299;-65
2022/10/07 03:58:41;;;;;;;;;;;9.10;99.90;;;;;;5066464;28;19935;-66
2022/10/07 04:01:09;;;;;;;;;;;9.10;99.90;;;;;;5058400;28;19925;-66
2022/10/07 04:03:36;;;;;;;;;;;9.00;99.90;;;;;;5052807;28;19952;-66
2022/10/07 04:06:03;;;;;;;;;;;9.00;99.90;;;;;;5066720;28;19928;-66
2022/10/07 04:08:31;;;;;;;;;;;9.00;99.90;;;;;;5055290;28;19929;-66
2022/10/07 04:10:58;;;;;;;;;;;9.10;99.90;;;;;;5064187;28;19924;-66
2022/10/07 04:13:25;;;;;;;;;;;9.00;99.90;;;;;;5054671;28;19978;-65
2022/10/07 04:15:53;;;;;;;;;;;9.00;99.90;;;;;;5062325;28;19924;-66
2022/10/07 04:18:20;;;;;;;;;;;9.00;99.90;;;;;;5053513;28;20054;-66
2022/10/07 04:20:46;;;;;;;;;;;9.00;99.90;;;;;;5062452;28;19947;-65
2022/10/07 04:23:13;;;;;;;;;;;9.00;99.90;;;;;;5051870;28;19925;-66
2022/10/07 04:25:42;;;;;;;;;;;9.00;99.90;;;;;;5052998;28;20351;-65
2022/10/07 04:28:13;;;;;;;;;;;9.00;99.90;;;;;;5061739;28;19977;-66
2022/10/07 04:30:42;;;;;;;;;;;9.00;99.90;;;;;;5071034;28;20006;-66
2022/10/07 04:33:10;;;;;;;;;;;9.00;99.90;;;;;;5054445;28;19932;-65
2022/10/07 04:35:38;;;;;;;;;;;8.90;99.90;;;;;;5055077;28;20360;-67
2022/10/07 04:38:06;;;;;;;;;;;8.90;99.90;;;;;;5056994;28;19924;-66
2022/10/07 04:40:33;;;;;;;;;;;8.90;99.90;;;;;;5057375;28;20307;-66
2022/10/07 04:45:44;;;;;;;;;;;8.80;99.90;;;;;;5051914;28;19932;-65
2022/10/07 04:48:12;;;;;;;;;;;8.80;99.90;;;;;;5061264;28;19925;-65
2022/10/07 04:50:38;;;;;;;;;;;8.70;99.90;;;;;;5054893;28;19925;-65
2022/10/07 04:53:05;;;;;;;;;;;8.70;99.90;;;;;;5057042;28;19935;-65
2022/10/07 04:55:36;;;;;;;;;;;8.70;99.90;;;;;;5053691;28;20264;-65
2022/10/07 04:58:03;;;;;;;;;;;8.70;99.90;;;;;;5058505;28;19975;-65
2022/10/07 05:00:29;;;;;;;;;;;8.70;99.90;;;;;;5062521;28;19931;-65
2022/10/07 05:02:56;;;;;;;;;;;8.70;99.90;;;;;;5063170;28;19924;-66
2022/10/07 05:05:24;;;;;;;;;;;8.70;99.90;;;;;;5055495;28;20449;-67
2022/10/07 05:07:51;;;;;;;;;;;8.70;99.90;;;;;;5057395;28;19924;-66
2022/10/07 05:10:18;;;;;;;;;;;8.60;99.90;;;;;;5054512;28;19957;-66
2022/10/07 05:12:45;;;;;;;;;;;8.60;99.90;;;;;;5058397;28;19925;-66
2022/10/07 05:15:12;;;;;;;;;;;8.60;99.90;;;;;;5063485;28;20016;-66
2022/10/07 05:17:40;;;;;;;;;;;8.60;99.90;;;;;;5052521;28;19924;-66
2022/10/07 05:20:07;;;;;;;;;;;8.60;99.90;;;;;;5053390;28;19963;-66
2022/10/07 05:22:35;;;;;;;;;;;8.60;99.90;;;;;;5052865;28;19932;-65
2022/10/07 05:25:01;;;;;;;;;;;8.60;99.90;;;;;;5059058;28;19924;-66
2022/10/07 05:27:28;;;;;;;;;;;8.60;99.90;;;;;;5054912;28;19932;-66
2022/10/07 05:29:55;;;;;;;;;;;8.60;99.90;;;;;;5055092;28;19932;-67
2022/10/07 05:32:22;;;;;;;;;;;8.60;99.90;;;;;;5053780;28;19939;-66
2022/10/07 05:34:48;;;;;;;;;;;8.50;99.90;;;;;;5048430;28;19928;-68
2022/10/07 05:37:15;;;;;;;;;;;8.50;99.90;;;;;;5052829;28;19929;-66
2022/10/07 05:39:43;;;;;;;;;;;8.50;99.90;;;;;;5049265;28;20253;-66
2022/10/07 05:42:12;;;;;;;;;;;8.50;99.90;;;;;;5059767;28;21238;-66
2022/10/07 05:44:39;;;;;;;;;;;8.40;99.90;;;;;;5059032;28;19933;-67
2022/10/07 05:47:05;;;;;;;;;;;8.40;99.90;;;;;;5058699;28;19940;-66
2022/10/07 05:49:32;;;;;;;;;;;8.40;99.90;;;;;;5057552;28;20021;-66
2022/10/07 05:51:59;;;;;;;;;;;8.30;99.90;;;;;;5058615;28;19950;-65
2022/10/07 05:54:26;;;;;;;;;;;8.30;99.90;;;;;;5058040;28;20264;-66
2022/10/07 05:56:54;;;;;;;;;;;8.30;99.90;;;;;;5057742;28;20350;-66
2022/10/07 05:59:21;;;;;;;;;;;8.30;99.90;;;;;;5055854;28;19999;-66
2022/10/07 06:01:47;;;;;;;;;;;8.30;99.90;;;;;;5058997;28;20324;-65
2022/10/07 06:04:14;;;;;;;;;;;8.30;99.90;;;;;;5063305;28;20028;-66
2022/10/07 06:06:41;;;;;;;;;;;8.30;99.90;;;;;;5056395;28;19941;-67
2022/10/07 06:14:37;;;;;;;;;;;8.50;99.90;;;;;;5055905;28;20672;-66
2022/10/07 06:17:04;;;;;;;;;;;8.60;99.90;;;;;;5058977;28;19932;-65
2022/10/07 06:19:31;;;;;;;;;;;8.60;99.90;;;;;;5060595;28;19947;-65
2022/10/07 06:21:58;;;;;;;;;;;8.60;99.90;;;;;;5057289;28;19924;-65
2022/10/07 06:24:25;;;;;;;;;;;8.70;99.90;;;;;;5057429;28;19948;-65
2022/10/07 06:26:54;;;;;;;;;;;8.70;99.90;;;;;;5055300;28;19979;-65
2022/10/07 06:29:20;;;;;;;;;;;8.70;99.90;;;;;;5056441;28;20079;-66
2022/10/07 06:31:48;;;;;;;;;;;8.80;99.90;;;;;;5055802;28;19940;-66
2022/10/07 06:34:15;;;;;;;;;;;8.90;99.90;;;;;;5053005;28;20399;-66
2022/10/07 06:36:42;;;;;;;;;;;8.90;99.90;;;;;;5064064;28;19924;-66
2022/10/07 06:39:09;;;;;;;;;;;9.00;99.90;;;;;;5057652;28;20375;-66
2022/10/07 06:41:35;;;;;;;;;;;9.00;99.90;;;;;;5067098;28;20371;-65
2022/10/07 06:44:02;;;;;;;;;;;9.10;99.90;;;;;;5054614;28;19935;-65
2022/10/07 06:46:28;;;;;;;;;;;9.10;99.90;;;;;;5061634;28;19925;-66
2022/10/07 06:48:57;;;;;;;;;;;9.20;99.90;;;;;;5058555;28;19946;-66
2022/10/07 06:51:23;;;;;;;;;;;9.30;99.90;;;;;;5057169;28;19970;-65
2022/10/07 06:53:51;;;;;;;;;;;9.40;99.90;;;;;;5053236;28;20507;-68
2022/10/07 06:56:18;;;;;;;;;;;9.40;99.90;;;;;;5051678;28;20093;-67
2022/10/07 06:58:45;;;;;;;;;;;9.50;99.90;;;;;;5066053;28;19924;-65
2022/10/07 07:01:11;;;;;;;;;;;9.60;99.90;;;;;;5070909;28;19931;-65
2022/10/07 07:03:38;;;;;;;;;;;9.60;99.90;;;;;;5065494;28;19924;-65
2022/10/07 07:06:07;;;;;;;;;;;9.70;99.90;;;;;;5061285;28;20008;-65
2022/10/07 07:08:34;;;;;;;;;;;9.80;99.90;;;;;;5068345;28;20418;-64
2022/10/07 07:11:02;;;;;;;;;;;9.90;99.90;;;;;;5055478;28;19924;-64
2022/10/07 07:13:28;;;;;;;;;;;10.00;99.90;;;;;;5062842;28;19935;-64
2022/10/07 07:15:56;;;;;;;;;;;10.10;99.90;;;;;;5068696;28;20019;-64
2022/10/07 07:18:23;;;;;;;;;;;10.10;99.90;;;;;;5057246;28;19932;-64
2022/10/07 07:20:50;;;;;;;;;;;10.20;99.90;;;;;;5058804;28;19925;-64
2022/10/07 07:23:18;;;;;;;;;;;10.20;99.90;;;;;;5059310;28;20453;-64
2022/10/07 07:25:44;;;;;;;;;;;10.30;99.90;;;;;;5069563;28;20015;-64
2022/10/07 07:28:12;;;;;;;;;;;10.40;99.90;;;;;;5060603;28;20019;-64
2022/10/07 07:30:38;;;;;;;;;;;10.50;99.90;;;;;;5058289;28;19928;-64
2022/10/07 07:33:05;;;;;;;;;;;10.50;99.90;;;;;;5062300;28;19932;-64
2022/10/07 07:35:36;;;;;;;;;;;10.70;99.90;;;;;;5056147;28;20313;-64
2022/10/07 07:38:02;;;;;;;;;;;10.70;99.90;;;;;;5056264;28;19933;-64
2022/10/07 07:40:30;;;;;;;;;;;11.30;99.90;;;;;;5061626;28;19932;-64
2022/10/07 07:42:57;;;;;;;;;;;12.80;99.90;;;;;;5060635;28;19924;-64
2022/10/07 07:45:24;;;;;;;;;;;14.20;99.90;;;;;;5067723;28;19987;-63
2022/10/07 07:47:51;;;;;;;;;;;15.90;99.90;;;;;;5079116;28;19924;-63
2022/10/07 07:50:25;;;;;;;;;;;16.90;99.40;;;;;;5053648;28;19940;-65
2022/10/07 07:52:52;;;;;;;;;;;17.80;95.80;;;;;;5056728;28;19932;-65
2022/10/07 07:55:20;;;;;;;;;;;17.90;94.80;;;;;;5053471;28;19925;-64
2022/10/07 07:57:48;;;;;;;;;;;18.00;93.10;;;;;;5064297;28;19951;-64
2022/10/07 08:00:15;;;;;;;;;;;18.00;93.40;;;;;;5063253;28;19931;-64
2022/10/07 08:02:41;;;;;;;;;;;18.20;93.40;;;;;;5059060;28;19946;-65
2022/10/07 08:05:09;;;;;;;;;;;19.00;92.00;;;;;;5055369;28;20031;-64
2022/10/07 08:07:35;;;;;;;;;;;19.10;90.60;;;;;;5055651;28;19926;-64
2022/10/07 08:10:02;;;;;;;;;;;19.30;90.20;;;;;;5057072;28;19928;-64
2022/10/07 08:12:28;;;;;;;;;;;19.60;88.50;;;;;;5053148;28;20003;-64
2022/10/07 08:14:56;;;;;;;;;;;19.50;86.20;;;;;;5055527;28;19925;-65
2022/10/07 08:17:23;;;;;;;;;;;19.40;84.40;;;;;;5052106;28;19931;-65
2022/10/07 08:19:50;;;;;;;;;;;19.00;84.20;;;;;;5063633;28;19928;-64
2022/10/07 08:22:17;;;;;;;;;;;19.10;84.30;;;;;;5064545;28;20559;-65
2022/10/07 08:24:44;;;;;;;;;;;19.50;83.60;;;;;;5068597;28;20056;-64
2022/10/07 08:27:12;;;;;;;;;;;20.00;82.60;;;;;;5065807;28;19924;-64
2022/10/07 08:29:38;;;;;;;;;;;19.50;82.40;;;;;;5054757;28;19994;-65
2022/10/07 08:32:06;;;;;;;;;;;19.30;81.30;;;;;;5056856;28;19928;-64
2022/10/07 08:34:33;;;;;;;;;;;19.60;82.40;;;;;;5054485;28;20352;-65
2022/10/07 08:37:00;;;;;;;;;;;20.00;80.00;;;;;;5069533;28;19925;-64
2022/10/07 08:39:28;;;;;;;;;;;19.30;81.20;;;;;;5059606;28;19931;-64
2022/10/07 08:41:59;;;;;;;;;;;18.90;82.90;;;;;;5062163;28;20387;-65
2022/10/07 08:44:27;;;;;;;;;;;19.30;82.80;;;;;;5058174;28;20383;-65
2022/10/07 08:46:59;;;;;;;;;;;20.30;81.20;;;;;;5055698;28;20383;-64
2022/10/07 08:49:31;;;;;;;;;;;21.00;77.40;;;;;;5053554;28;20035;-64
2022/10/07 08:51:59;;;;;;;;;;;20.70;76.30;;;;;;5055940;28;19931;-65
2022/10/07 08:54:28;;;;;;;;;;;21.10;74.90;;;;;;5055769;28;20378;-65
2022/10/07 08:56:58;;;;;;;;;;;20.70;72.40;;;;;;5058515;28;20363;-64
2022/10/07 08:59:27;;;;;;;;;;;20.30;73.80;;;;;;5057643;28;19943;-65
2022/10/07 09:02:00;;;;;;;;;;;20.80;73.60;;;;;;5054786;28;19929;-65
2022/10/07 09:04:32;;;;;;;;;;;20.80;74.30;;;;;;5057226;28;19954;-65
2022/10/07 09:07:01;;;;;;;;;;;21.30;72.60;;;;;;5053812;28;20296;-65
2022/10/07 09:09:30;;;;;;;;;;;21.90;69.80;;;;;;5056248;28;19955;-65
2022/10/07 09:11:57;;;;;;;;;;;22.20;67.70;;;;;;5053045;28;19925;-65
2022/10/07 09:14:27;;;;;;;;;;;22.40;63.90;;;;;;5056314;28;19931;-66
2022/10/07 09:16:55;;;;;;;;;;;22.10;60.90;;;;;;5052524;28;19947;-65
2022/10/07 09:19:25;;;;;;;;;;;21.60;60.90;;;;;;5056593;28;19932;-65
2022/10/07 09:21:54;;;;;;;;;;;20.70;62.90;;;;;;5053089;28;19933;-65
2022/10/07 09:24:23;;;;;;;;;;;19.80;63.80;;;;;;5058715;28;19976;-65
2022/10/07 09:26:53;;;;;;;;;;;19.00;67.30;;;;;;5054122;28;20453;-65
2022/10/07 09:29:22;;;;;;;;;;;17.70;74.00;;;;;;5053136;28;20379;-65
2022/10/07 09:31:48;;;;;;;;;;;16.80;81.90;;;;;;5055758;28;19964;-65
2022/10/07 09:34:20;;;;;;;;;;;16.10;90.70;;;;;;5056137;28;19928;-65
2022/10/07 09:37:05;;;;;;;;;;;15.90;94.10;;;;;;5055320;28;19933;-66
2022/10/07 09:39:33;;;;;;;;;;;15.90;96.10;;;;;;5061102;28;19935;-64
2022/10/07 09:42:00;;;;;;;;;;;16.10;97.30;;;;;;5053594;28;19936;-66
2022/10/07 09:44:28;;;;;;;;;;;16.00;96.70;;;;;;5061362;28;20119;-64
2022/10/07 09:46:58;;;;;;;;;;;15.90;96.80;;;;;;5057279;28;19960;-65
2022/10/07 09:49:34;;;;;;;;;;;15.80;96.80;;;;;;5066671;28;19928;-65
2022/10/07 09:52:02;;;;;;;;;;;15.80;97.00;;;;;;5054674;28;19924;-65
2022/10/07 09:54:30;;;;;;;;;;;15.90;97.40;;;;;;5052441;28;19995;-64
2022/10/07 09:56:59;;;;;;;;;;;15.90;97.40;;;;;;5059023;28;19936;-64
2022/10/07 09:59:27;;;;;;;;;;;15.90;97.30;;;;;;5064871;28;19924;-64
2022/10/07 10:01:54;;;;;;;;;;;15.90;97.40;;;;;;5049823;28;20416;-64
2022/10/07 10:04:23;;;;;;;;;;;16.10;97.90;;;;;;5054315;28;19925;-66
2022/10/07 10:06:50;;;;;;;;;;;16.10;97.20;;;;;;5052274;28;19933;-65
2022/10/07 10:09:19;;;;;;;;;;;16.20;97.10;;;;;;5062831;28;19935;-65
2022/10/07 10:11:57;;;;;;;;;;;16.20;96.80;;;;;;5057584;28;20460;-65
2022/10/07 10:14:35;;;;;;;;;;;16.30;97.30;;;;;;5056632;28;20366;-65
2022/10/07 10:17:04;;;;;;;;;;;16.30;97.60;;;;;;5056408;28;19925;-66
2022/10/07 10:19:31;;;;;;;;;;;16.40;97.40;;;;;;5048843;28;20391;-66
2022/10/07 10:21:58;;;;;;;;;;;16.40;96.80;;;;;;5054544;28;19925;-66
2022/10/07 10:27:08;;;;;;;;;;;16.40;97.00;;;;;;5056325;28;19924;-65
2022/10/07 10:29:41;;;;;;;;;;;16.20;97.10;;;;;;5063795;28;19931;-64
2022/10/07 10:32:26;;;;;;;;;;;16.30;97.60;;;;;;5061577;28;20303;-64
2022/10/07 10:34:55;;;;;;;;;;;16.50;97.80;;;;;;5055974;28;19932;-64
2022/10/07 10:37:25;;;;;;;;;;;16.50;97.00;;;;;;5058469;28;20002;-65
2022/10/07 10:39:58;;;;;;;;;;;16.60;97.10;;;;;;5058684;28;19950;-64
2022/10/07 10:42:27;;;;;;;;;;;16.60;96.20;;;;;;5060984;28;19994;-65
2022/10/07 10:45:06;;;;;;;;;;;16.60;96.40;;;;;;5065384;28;20015;-64
2022/10/07 10:47:38;;;;;;;;;;;16.70;96.70;;;;;;5065162;28;20410;-64
2022/10/07 10:50:11;;;;;;;;;;;16.60;96.20;;;;;;5057591;28;19925;-65
2022/10/07 10:52:44;;;;;;;;;;;16.60;96.10;;;;;;5057988;28;19928;-65
2022/10/07 10:55:18;;;;;;;;;;;16.60;96.30;;;;;;5064695;28;19983;-65
2022/10/07 10:57:50;;;;;;;;;;;16.60;96.40;;;;;;5055706;28;20382;-65
2022/10/07 11:00:20;;;;;;;;;;;16.80;96.10;;;;;;5062378;28;20023;-64
2022/10/07 11:03:07;;;;;;;;;;;16.70;95.70;;;;;;5061416;28;19929;-64
2022/10/07 11:05:35;;;;;;;;;;;16.60;96.20;;;;;;5051471;28;19947;-64
2022/10/07 11:08:04;;;;;;;;;;;16.70;96.00;;;;;;5062691;28;20405;-64
2022/10/07 11:10:34;;;;;;;;;;;16.70;95.80;;;;;;5064160;28;20339;-65
2022/10/07 11:13:05;;;;;;;;;;;16.80;95.80;;;;;;5056841;28;19925;-65
2022/10/07 11:15:35;;;;;;;;;;;17.00;95.70;;;;;;5067820;28;19925;-65
2022/10/07 11:18:05;;;;;;;;;;;17.00;95.30;;;;;;5057595;28;19982;-65
2022/10/07 11:20:33;;;;;;;;;;;17.00;95.20;;;;;;5057307;28;19933;-65
2022/10/07 11:23:02;;;;;;;;;;;17.10;95.10;;;;;;5051796;28;20295;-65
2022/10/07 11:25:31;;;;;;;;;;;17.20;95.00;;;;;;5068487;28;19925;-64
2022/10/07 11:28:04;;;;;;;;;;;17.20;94.50;;;;;;5055446;28;19925;-65
2022/10/07 11:30:42;;;;;;;;;;;17.20;94.40;;;;;;5055550;28;19925;-65
2022/10/07 11:33:14;;;;;;;;;;;17.30;93.90;;;;;;5075898;28;19930;-65
2022/10/07 11:35:43;;;;;;;;;;;17.20;94.70;;;;;;5061015;28;19970;-65
2022/10/07 11:38:14;;;;;;;;;;;17.10;94.20;;;;;;5054975;28;19925;-65
2022/10/07 11:40:43;;;;;;;;;;;17.20;94.20;;;;;;5062511;28;19928;-65
2022/10/07 11:43:14;;;;;;;;;;;17.30;94.40;;;;;;5059472;28;20298;-65
2022/10/07 11:45:42;;;;;;;;;;;17.30;94.30;;;;;;5053969;28;19931;-65
2022/10/07 11:48:14;;;;;;;;;;;17.40;94.60;;;;;;5059213;28;19924;-66
2022/10/07 11:50:43;;;;;;;;;;;17.60;93.80;;;;;;5063961;28;20391;-65
2022/10/07 11:53:14;;;;;;;;;;;17.70;93.80;;;;;;5067499;28;19931;-65
2022/10/07 11:55:44;;;;;;;;;;;17.80;93.80;;;;;;5067944;28;19928;-66
2022/10/07 11:58:21;;;;;;;;;;;17.80;93.50;;;;;;5057623;28;19928;-65
2022/10/07 12:00:48;;;;;;;;;;;17.80;93.50;;;;;;5069044;28;19947;-65
2022/10/07 12:03:45;;;;;;;;;;;17.70;93.60;;;;;;5059386;28;20345;-66
2022/10/07 12:06:12;;;;;;;;;;;17.90;94.10;;;;;;5052412;28;20551;-65
2022/10/07 12:08:40;;;;;;;;;;;18.10;93.80;;;;;;5059725;28;20302;-65
2022/10/07 12:11:26;;;;;;;;;;;17.90;93.20;;;;;;5057115;28;19964;-65
2022/10/07 12:13:53;;;;;;;;;;;17.90;93.30;;;;;;5051719;28;20298;-65
2022/10/07 12:16:39;;;;;;;;;;;17.90;93.40;;;;;;5061593;28;21804;-65
2022/10/07 12:19:17;;;;;;;;;;;17.90;93.50;;;;;;5054017;28;19925;-65
2022/10/07 12:22:10;;;;;;;;;;;17.80;93.40;;;;;;5061728;28;19924;-66
2022/10/07 12:24:37;;;;;;;;;;;17.90;93.40;;;;;;5030366;28;19933;-64
2022/10/07 12:27:06;;;;;;;;;;;17.80;92.50;;;;;;5061024;28;19924;-64
2022/10/07 12:29:49;;;;;;;;;;;17.70;92.10;;;;;;5053331;28;20114;-65
2022/10/07 12:32:35;;;;;;;;;;;17.80;92.50;;;;;;5056087;28;19984;-64
2022/10/07 12:35:17;;;;;;;;;;;18.00;92.00;;;;;;5053201;28;20018;-65
2022/10/07 12:37:50;;;;;;;;;;;18.00;91.90;;;;;;5058335;28;19925;-64
2022/10/07 12:40:22;;;;;;;;;;;18.00;91.90;;;;;;5051070;28;19932;-65
2022/10/07 12:42:54;;;;;;;;;;;18.00;91.90;;;;;;5060280;28;20350;-65
2022/10/07 12:45:22;;;;;;;;;;;18.00;92.20;;;;;;5051608;28;20384;-65
2022/10/07 12:47:49;;;;;;;;;;;18.00;92.40;;;;;;5053234;28;19924;-65
2022/10/07 12:50:17;;;;;;;;;;;18.00;91.90;;;;;;5068461;28;19931;-65
2022/10/07 12:52:46;;;;;;;;;;;17.90;92.10;;;;;;5063764;28;19924;-65
2022/10/07 12:55:18;;;;;;;;;;;18.10;92.20;;;;;;5067607;28;19924;-65
2022/10/07 12:57:48;;;;;;;;;;;18.20;91.20;;;;;;5057500;28;19968;-65
2022/10/07 13:00:15;;;;;;;;;;;18.30;91.40;;;;;;5056324;28;19924;-65
2022/10/07 13:03:15;;;;;;;;;;;18.30;91.60;;;;;;5054126;28;19991;-65
2022/10/07 13:05:58;;;;;;;;;;;18.50;91.50;;;;;;5056229;28;19925;-65
2022/10/07 13:08:43;;;;;;;;;;;18.60;91.30;;;;;;5033361;28;19929;-64
2022/10/07 13:11:41;;;;;;;;;;;18.70;91.20;;;;;;5119623;27;19924;-66
2022/10/07 13:14:09;;;;;;;;;;;18.60;91.10;;;;;;5100923;28;19923;-66
2022/10/07 13:16:37;;;;;;;;;;;18.60;90.90;;;;;;5117830;27;19927;-66
2022/10/07 13:19:06;;;;;;;;;;;18.70;90.30;;;;;;5103862;28;20026;-66
2022/10/07 13:21:36;;;;;;;;;;;18.40;90.50;;;;;;5105157;28;19951;-66
2022/10/07 13:24:03;;;;;;;;;;;18.30;90.50;;;;;;5108379;28;19943;-66
2022/10/07 13:26:29;;;;;;;;;;;18.30;90.40;;;;;;5096840;28;20394;-65
2022/10/07 13:28:59;;;;;;;;;;;18.20;90.40;;;;;;5103215;28;20369;-65
2022/10/07 13:31:26;;;;;;;;;;;18.40;90.10;;;;;;5107822;28;19924;-66
2022/10/07 13:33:54;;;;;;;;;;;18.50;90.20;;;;;;5104425;28;19981;-65
2022/10/07 13:36:22;;;;;;;;;;;18.50;89.20;;;;;;5116036;27;19924;-66
2022/10/07 13:38:49;;;;;;;;;;;18.50;89.90;;;;;;5113008;28;19924;-65
2022/10/07 13:41:23;;;;;;;;;;;18.50;89.30;;;;;;5102263;28;19932;-65
2022/10/07 13:43:53;;;;;;;;;;;18.50;88.70;;;;;;5094391;28;19977;-66
2022/10/07 13:46:22;;;;;;;;;;;18.60;87.50;;;;;;5093408;28;20028;-66
2022/10/07 13:48:49;;;;;;;;;;;18.50;87.60;;;;;;5096950;28;19977;-66
2022/10/07 13:51:23;;;;;;;;;;;18.50;87.70;;;;;;5095076;28;20066;-66
2022/10/07 13:53:54;;;;;;;;;;;18.40;87.60;;;;;;5098883;28;19931;-65
2022/10/07 13:56:23;;;;;;;;;;;18.30;88.90;;;;;;5098325;28;19925;-66
2022/10/07 13:58:53;;;;;;;;;;;18.30;88.70;;;;;;5107089;27;19971;-65
2022/10/07 14:01:23;;;;;;;;;;;18.40;88.80;;;;;;5102677;27;19977;-65
2022/10/07 14:04:16;;;;;;;;;;;18.30;87.80;;;;;;5103115;28;19971;-65
2022/10/07 14:06:51;;;;;;;;;;;18.40;88.20;;;;;;5070313;28;19944;-65
2022/10/07 14:09:18;;;;;;;;;;;18.50;87.80;;;;;;5108069;28;20030;-66
2022/10/07 14:11:46;;;;;;;;;;;18.60;88.40;;;;;;5105321;28;19983;-66
2022/10/07 14:14:21;;;;;;;;;;;18.60;85.90;;;;;;5092313;28;19924;-66
2022/10/07 14:16:54;;;;;;;;;;;18.40;87.60;;;;;;5109027;28;20015;-66
2022/10/07 14:19:21;;;;;;;;;;;18.40;86.80;;;;;;5102232;28;19928;-66
2022/10/07 14:21:48;;;;;;;;;;;18.30;86.90;;;;;;5101816;27;19975;-65
2022/10/07 14:24:17;;;;;;;;;;;18.40;86.80;;;;;;5088078;28;19931;-66
2022/10/07 14:26:44;;;;;;;;;;;18.30;86.80;;;;;;5087499;28;19924;-65
2022/10/07 14:29:30;;;;;;;;;;;18.30;86.70;;;;;;5103420;28;19943;-66
2022/10/07 14:37:36;;;;;;;;;;;18.40;86.20;;;;;;5093103;28;20024;-66
2022/10/07 14:40:03;;;;;;;;;;;18.20;86.20;;;;;;5091231;28;20562;-66
2022/10/07 14:42:32;;;;;;;;;;;18.30;85.60;;;;;;5096585;28;19970;-66
2022/10/07 14:45:01;;;;;;;;;;;18.40;85.80;;;;;;5081545;28;19928;-66
2022/10/07 14:47:30;;;;;;;;;;;18.30;84.10;;;;;;5075065;28;19928;-65
2022/10/07 14:49:58;;;;;;;;;;;18.20;84.80;;;;;;5075149;28;19990;-65
2022/10/07 14:52:27;;;;;;;;;;;18.20;84.60;;;;;;5078292;28;19930;-67